CSUN New Campus Station -PST Time - Most Recent Data on bottom of page




           Date/Time      Avg      Avg      Max     Wind      Avg      Max      Min      Avg      Avg    Total      Avg     Batt
                         Wind     Wind     Wind      Dir     Temp     Temp     Temp       RH      Bar     Rain    Solar     Volt
                      Spd MPH      Dir  Spd MPH   at Max    Deg_F    Deg_F    Deg_F        % Press_mb   Inches     W/m2      Min
--------------------------------------------------------------------------------------------------------------------------------
    04/19/2017 00:00      1.5      255      2.7      253     57.8     58.3     57.6       85     1018     0.00        0     13.3
    04/19/2017 00:15      0.6      260      1.9      252     57.3     57.6     56.9       85     1018     0.00        0     13.3
    04/19/2017 00:30      0.2      303      1.2      291     56.9     57.2     56.7       86     1018     0.00        0     13.3
    04/19/2017 00:45      0.5      240      2.9      201     56.6     57.0     56.0       86     1018     0.00        0     13.3
    04/19/2017 01:00      1.7      193      4.6      184     56.1     56.3     55.9       87     1018     0.00        0     13.3
    04/19/2017 01:15      1.8      207      5.0      197     56.1     56.3     55.9       88     1018     0.00        0     13.3
    04/19/2017 01:30      2.2      218      4.8      188     56.0     56.3     55.5       88     1018     0.00        0     13.3
    04/19/2017 01:45      1.4      247      3.4      234     55.6     55.8     55.3       88     1018     0.00        0     13.3
    04/19/2017 02:00      1.1      266      3.9      281     55.5     55.9     55.2       88     1018     0.00        0     13.3
    04/19/2017 02:15      0.4      296      2.1      301     55.3     55.6     55.1       89     1018     0.00        0     13.3
    04/19/2017 02:30      1.0      195      4.3      174     55.7     56.1     55.3       89     1018     0.00        0     13.3
    04/19/2017 02:45      1.2      180      3.6      186     56.1     56.3     55.9       89     1018     0.00        0     13.3
    04/19/2017 03:00      2.3      154      3.8      162     56.0     56.3     55.6       89     1018     0.00        0     13.3
    04/19/2017 03:15      1.8      150      3.2      142     55.7     56.0     55.5       89     1018     0.00        0     13.3
    04/19/2017 03:30      1.7      200      4.4      208     55.8     56.0     55.6       89     1018     0.00        0     13.3
    04/19/2017 03:45      0.4      295      1.2      293     55.9     56.1     55.6       88     1018     0.00        0     13.3
    04/19/2017 04:00      0.3      233      1.0      220     55.8     56.0     55.4       88     1018     0.00        0     13.3
    04/19/2017 04:15      0.1      291      1.5      299     55.3     55.7     54.9       88     1018     0.00        0     13.3
    04/19/2017 04:30      0.7      308      1.7      298     54.9     55.2     54.6       88     1018     0.00        0     13.3
    04/19/2017 04:45      0.3      284      1.4      261     54.4     54.9     54.1       89     1018     0.00        0     13.3
    04/19/2017 05:00      0.3      311      1.3      349     54.2     54.5     53.9       89     1018     0.00        0     13.3
    04/19/2017 05:15      0.6      307      2.1      324     54.0     54.2     53.7       89     1018     0.00        0     13.3
    04/19/2017 05:30      0.5      278      2.0      265     53.6     54.1     53.3       89     1018     0.00        6     13.3
    04/19/2017 05:45      0.8      298      2.1      262     53.4     53.7     53.1       90     1018     0.00       16     13.4
    04/19/2017 06:00      0.2      301      1.4      288     53.5     53.7     53.3       90     1018     0.00       26     13.4
    04/19/2017 06:15      0.9      232      2.9      199     54.1     54.8     53.6       90     1018     0.00       68     13.4
    04/19/2017 06:30      0.9      247      3.8      229     55.8     56.5     54.6       89     1019     0.00      146     13.3
    04/19/2017 06:45      2.0      239      5.0      217     56.8     57.5     56.2       86     1019     0.00      186     13.3
    04/19/2017 07:00      2.2      188      4.5      145     58.2     59.0     57.4       80     1019     0.00      238     13.3
    04/19/2017 07:15      1.6      196      5.8      151     60.1     61.9     58.9       72     1019     0.00      292     13.3
    04/19/2017 07:30      2.9      181      5.0      155     62.5     63.0     62.0       66     1019     0.00      343     13.2
    04/19/2017 07:45      1.5      211      3.7      191     64.2     65.5     62.8       53     1019     0.00      397     13.2
    04/19/2017 08:00      2.1      325      7.6        1     66.2     67.2     65.4       43     1019     0.00      449     13.1
    04/19/2017 08:15      3.1      304      6.7      316     67.4     67.9     67.0       38     1019     0.00      498     13.1
    04/19/2017 08:30      2.5      338      5.9      336     68.2     69.2     67.5       37     1019     0.00      546     13.1
    04/19/2017 08:45      2.4      333      6.4      304     69.5     70.3     68.8       33     1019     0.00      593     13.1
    04/19/2017 09:00      3.6      328      9.1      329     70.3     70.9     69.8       31     1019     0.00      634     13.1
    04/19/2017 09:15      4.2      326     10.9      345     70.6     71.7     69.8       29     1018     0.00      674     13.0
    04/19/2017 09:30      2.8      354      8.6      354     71.7     72.8     70.9       28     1018     0.00      712     13.0
    04/19/2017 09:45      3.7      329      9.0      319     72.4     73.4     71.7       29     1018     0.00      745     13.0
    04/19/2017 10:00      2.3      313      6.5      320     73.4     74.4     72.6       27     1018     0.00      776     13.0
    04/19/2017 10:15      2.6       98      6.4       91     73.3     73.9     72.4       28     1018     0.00      801     13.0
    04/19/2017 10:30      1.7       68      4.5       23     74.5     75.2     73.2       28     1018     0.00      825     13.0
    04/19/2017 10:45      1.3      339      5.0       95     75.8     76.3     75.0       26     1018     0.00      844     13.0
    04/19/2017 11:00      2.2      113      5.1       92     76.2     76.8     75.8       26     1018     0.00      859     12.9
    04/19/2017 11:15      2.9      163      6.8      162     76.4     77.1     75.7       24     1018     0.00      872     12.9
    04/19/2017 11:30      2.7      150      8.4      168     76.5     77.4     75.8       27     1018     0.00      884     12.9
    04/19/2017 11:45      5.2      118     10.6      135     77.1     77.8     76.5       30     1018     0.00      886     12.9
    04/19/2017 12:00      5.1      126     12.0      126     77.0     77.7     76.2       32     1017     0.00      885     12.9
    04/19/2017 12:15      5.4      123     12.2      163     76.6     77.4     75.7       37     1017     0.00      876     12.9
    04/19/2017 12:30      5.6      139     12.6      162     76.5     77.0     75.8       34     1017     0.00      876     12.9
    04/19/2017 12:45      5.5      137     10.6      160     76.6     77.4     75.7       35     1017     0.00      865     12.9
    04/19/2017 13:00      4.3      142      9.9      158     77.3     78.2     76.5       34     1017     0.00      849     12.9
    04/19/2017 13:15      4.5      166     10.0      274     76.9     77.9     76.4       32     1017     0.00      836     12.9
    04/19/2017 13:30      5.9      253     15.4      246     76.7     77.1     76.2       33     1017     0.00      812     12.9
    04/19/2017 13:45      5.2      277     13.1      246     77.0     77.5     76.5       31     1017     0.00      789     12.9
    04/19/2017 14:00      4.4      251     11.6      227     77.7     78.3     77.0       30     1017     0.00      762     12.9
    04/19/2017 14:15      5.2      242     11.8      250     77.3     77.9     76.6       30     1017     0.00      732     12.9
    04/19/2017 14:30      4.0      250     10.8      252     77.6     78.4     76.8       30     1017     0.00      699     12.9
    04/19/2017 14:45      4.4      272      8.4      279     77.7     78.4     77.0       31     1017     0.00      663     12.9
    04/19/2017 15:00      6.0      261     12.3      302     77.6     78.2     76.8       29     1017     0.00      625     12.9
    04/19/2017 15:15      5.6      263     11.1      251     77.3     77.9     77.0       29     1017     0.00      584     12.9
    04/19/2017 15:30      5.1      277     12.1      250     77.4     78.1     77.0       27     1016     0.00      522     12.9
    04/19/2017 15:45      6.0      274     12.5      262     76.9     77.9     76.5       27     1016     0.00      496     12.9
    04/19/2017 16:00      5.6      279     11.1      253     76.5     76.8     76.2       28     1016     0.00      450     12.9
    04/19/2017 16:15      6.5      271     15.5      254     75.9     76.5     75.2       29     1016     0.00      401     12.9
    04/19/2017 16:30      7.0      267     15.5      237     75.1     75.8     74.3       30     1016     0.00      351     12.9
    04/19/2017 16:45      6.8      256     14.7      261     74.7     75.0     73.9       29     1016     0.00      297     13.0
    04/19/2017 17:00      6.8      257     14.3      249     73.8     74.3     73.5       31     1017     0.00      245     13.0
    04/19/2017 17:15      5.9      245     13.0      253     73.0     73.6     72.6       35     1017     0.00      194     13.0
    04/19/2017 17:30      5.1      248     12.2      279     72.8     73.0     72.5       34     1016     0.00      147     13.0
    04/19/2017 17:45      3.5      264      8.4      254     72.8     73.1     72.5       34     1016     0.00      104     13.0
    04/19/2017 18:00      3.4      278      7.5      241     72.5     72.9     72.2       36     1016     0.00       62     13.0
    04/19/2017 18:15      2.0      284      4.9      298     72.0     72.4     71.5       37     1016     0.00       27     13.0
    04/19/2017 18:30      1.8      278      5.4      253     71.1     71.6     70.5       40     1016     0.00        8     13.1
    04/19/2017 18:45      0.6      260      5.5      253     70.2     70.7     69.7       42     1016     0.00        1     13.1
    04/19/2017 19:00      0.0        0      0.0      344     69.2     69.7     68.7       45     1016     0.00        0     13.1
    04/19/2017 19:15      0.3      280      2.8      343     68.4     68.9     68.0       45     1016     0.00        0     13.1
    04/19/2017 19:30      1.2      309      9.9      319     68.4     69.1     68.0       35     1017     0.00        0     13.2
    04/19/2017 19:45      1.3      263      4.3      260     68.5     69.4     67.6       47     1017     0.00        0     13.2
    04/19/2017 20:00      0.5      275      5.1      242     67.3     67.8     66.7       49     1017     0.00        0     13.2
    04/19/2017 20:15      0.1      357      1.7      330     66.5     67.0     66.2       49     1017     0.00        0     13.2
    04/19/2017 20:30      2.1      343     10.6      334     67.0     67.8     66.3       37     1017     0.00        0     13.2
    04/19/2017 20:45      2.8      317      7.1      340     67.7     68.0     67.2       43     1018     0.00        0     13.2
    04/19/2017 21:00      1.7      308      6.9      302     66.9     67.4     66.3       36     1018     0.00        0     13.2
    04/19/2017 21:15      2.5      305      6.6      273     66.5     66.7     66.1       36     1018     0.00        0     13.2
    04/19/2017 21:30      2.5      313      8.6      355     66.3     66.7     66.0       35     1018     0.00        0     13.2
    04/19/2017 21:45      3.2      311     10.1      335     66.2     66.6     66.0       36     1018     0.00        0     13.2
    04/19/2017 22:00      4.6      330     12.1      351     66.4     66.7     66.1       35     1018     0.00        0     13.2
    04/19/2017 22:15      4.9      338     11.5      334     66.4     66.6     66.1       35     1018     0.00        0     13.2
    04/19/2017 22:30      2.9      316      9.8      345     66.3     66.6     66.1       36     1018     0.00        0     13.2
    04/19/2017 22:45      2.5      321      7.2      338     65.8     66.4     65.4       37     1018     0.00        0     13.2
    04/19/2017 23:00      2.8      324      9.1      323     65.8     66.1     65.6       37     1017     0.00        0     13.2
    04/19/2017 23:15      2.4      294      6.8      324     65.0     66.0     63.3       55     1017     0.00        0     13.2
    04/19/2017 23:30      1.4      308      7.4      347     63.1     64.4     62.4       38     1017     0.00        0     13.2
    04/19/2017 23:45      1.4      280      8.5      297     63.9     64.9     62.6       48     1017     0.00        0     13.2
    04/20/2017 00:00      0.2      249      3.5      262     61.9     62.9     61.1       58     1017     0.00        0     13.2
    04/20/2017 00:15      0.1      256      2.9      264     60.4     61.4     59.3       62     1017     0.00        0     13.3
    04/20/2017 00:30      0.3      356      2.7      298     59.8     60.3     59.1       61     1017     0.00        0     13.3
    04/20/2017 00:45      0.2      327      2.1      339     59.1     59.6     58.8       63     1017     0.00        0     13.3
    04/20/2017 01:00      1.0      271      4.0      315     58.9     59.7     58.5       63     1017     0.00        0     13.3
    04/20/2017 01:15      0.9      261      3.9      230     58.9     59.4     58.4       62     1017     0.00        0     13.3
    04/20/2017 01:30      1.0      276      4.7      249     58.7     59.7     58.3       57     1017     0.00        0     13.3
    04/20/2017 01:45      1.0      247      6.8      245     58.7     59.9     57.5       67     1017     0.00        0     13.3
    04/20/2017 02:00      1.2      252      5.5      262     57.3     57.8     56.8       69     1017     0.00        0     13.3
    04/20/2017 02:15      0.7      260      4.4      248     56.6     56.9     56.0       72     1017     0.00        0     13.3
    04/20/2017 02:30      1.0      234      3.4      197     56.4     57.3     55.9       70     1017     0.00        0     13.3
    04/20/2017 02:45      0.8      251      3.4      189     56.1     56.6     55.8       73     1017     0.00        0     13.3
    04/20/2017 03:00      0.7      226      3.8      333     56.2     57.3     55.6       65     1017     0.00        0     13.3
    04/20/2017 03:15      2.4      184      7.7      178     57.0     57.5     56.4       70     1017     0.00        0     13.3
    04/20/2017 03:30      1.9      245      4.5      183     57.4     59.1     56.4       56     1017     0.00        0     13.3
    04/20/2017 03:45      2.0      224      6.2      205     58.1     58.7     57.7       55     1017     0.00        0     13.3
    04/20/2017 04:00      1.8      249      8.8      276     58.7     59.2     58.1       42     1017     0.00        0     13.3
    04/20/2017 04:15      4.4      317     13.7      336     61.6     62.6     59.1       34     1017     0.00        0     13.3
    04/20/2017 04:30      6.5      326     20.9        2     62.3     62.8     61.8       36     1017     0.00        0     13.3
    04/20/2017 04:45      6.9      332     19.7        9     61.6     62.0     61.2       37     1017     0.00        0     13.3
    04/20/2017 05:00      7.3      335     24.5        0     61.5     61.8     61.1       37     1017     0.00        0     13.3
    04/20/2017 05:15      8.0      333     16.8      331     61.5     61.8     61.3       38     1017     0.00        1     13.3
    04/20/2017 05:30      9.0      337     23.7      331     61.4     61.7     61.1       39     1017     0.00        6     13.3
    04/20/2017 05:45      7.9      338     22.3      338     61.7     62.0     61.4       38     1017     0.00       14     13.3
    04/20/2017 06:00      7.7      335     23.4      319     61.6     61.9     61.4       38     1017     0.00       21     13.3
    04/20/2017 06:15      8.9      335     24.9      335     62.0     62.5     61.5       36     1017     0.00       75     13.3
    04/20/2017 06:30      6.7      338     19.7      343     62.8     63.3     62.3       35     1017     0.00      158     13.3
    04/20/2017 06:45      7.5      338     21.3      339     63.4     63.9     62.9       34     1017     0.00      202     13.2
    04/20/2017 07:00      8.1      341     23.9       18     63.9     64.2     63.6       34     1018     0.00      257     13.2
    04/20/2017 07:15      8.3      335     21.0      347     64.4     65.0     63.9       32     1018     0.00      307     13.2
    04/20/2017 07:30      5.1      350     15.3      354     65.8     66.4     65.0       31     1018     0.00      358     13.2
    04/20/2017 07:45      3.8      337     13.6      339     66.2     66.6     65.8       30     1018     0.00      409     13.1
    04/20/2017 08:00      4.1      348     11.0      337     67.2     68.1     66.4       29     1018     0.00      458     13.1
    04/20/2017 08:15      3.3      355     10.3      327     68.6     69.2     67.8       27     1018     0.00      507     13.1
    04/20/2017 08:30      5.3      351     15.7      327     69.1     69.6     68.7       28     1018     0.00      554     13.1
    04/20/2017 08:45      5.5      349     15.7       46     69.3     69.9     68.9       27     1018     0.00      598     13.1
    04/20/2017 09:00      6.7      355     19.1      331     69.6     70.0     69.3       27     1018     0.00      639     13.1
    04/20/2017 09:15      4.2        7     13.8        0     70.5     71.8     69.4       26     1018     0.00      680     13.1
    04/20/2017 09:30      6.2      351     17.1      351     71.0     71.7     70.2       27     1018     0.00      717     13.0
    04/20/2017 09:45      5.8      339     15.4      332     71.8     72.6     71.1       25     1018     0.00      752     13.0
    04/20/2017 10:00      6.0      345     16.1      333     72.3     73.0     71.3       24     1018     0.00      785     13.0
    04/20/2017 10:15      4.8      342     18.0      323     73.0     73.9     72.3       24     1018     0.00      813     13.0
    04/20/2017 10:30      6.7      335     16.2      344     73.1     73.8     72.4       23     1018     0.00      835     13.0
    04/20/2017 10:45      5.9      329     18.4      328     73.3     73.8     72.9       24     1018     0.00      854     13.0
    04/20/2017 11:00      6.0      331     18.9      341     74.3     75.1     73.2       22     1018     0.00      872     13.0
    04/20/2017 11:15      6.9      331     22.5      331     74.5     75.2     73.7       21     1017     0.00      889     13.0
    04/20/2017 11:30      8.4      337     24.4      336     74.5     75.0     73.9       21     1017     0.00      903     13.0
    04/20/2017 11:45      7.5      334     21.5      319     74.8     75.3     74.3       18     1017     0.00      910     13.0
    04/20/2017 12:00      8.6      337     18.9      347     74.5     75.2     73.9       17     1017     0.00      909     13.0
    04/20/2017 12:15      4.5      319     15.2        9     76.0     76.5     74.8       16     1017     0.00      903     13.0
    04/20/2017 12:30      2.9      320     11.3       21     76.8     77.7     76.1       16     1017     0.00      896     13.0
    04/20/2017 12:45      4.1      338     14.9      327     77.7     78.1     77.2       15     1016     0.00      893     13.0
    04/20/2017 13:00      6.7      312     18.6      289     77.5     77.9     77.1       12     1016     0.00      885     12.9
    04/20/2017 13:15      7.0      333     22.8      349     78.3     79.0     77.4       11     1016     0.00      877     12.9
    04/20/2017 13:30      6.9      349     17.1        5     78.5     79.3     78.0       13     1016     0.00      853     12.9
    04/20/2017 13:45      8.0      333     18.6        2     79.1     79.8     78.7       13     1015     0.00      831     12.9
    04/20/2017 14:00      5.8      328     15.7      333     79.5     80.4     78.8       14     1015     0.00      801     12.9
    04/20/2017 14:15      3.5      331     12.4        6     80.7     81.8     79.9       13     1015     0.00      767     12.9
    04/20/2017 14:30      4.1      326     11.2      338     80.9     81.7     80.1       14     1015     0.00      730     12.9
    04/20/2017 14:45      5.2      334     12.4      350     80.9     81.6     80.2       12     1015     0.00      694     12.9
    04/20/2017 15:00      4.2      322     14.9      319     81.0     81.4     80.5       13     1015     0.00      654     12.9
    04/20/2017 15:15      4.7      312     11.1      328     80.5     81.1     79.8       13     1015     0.00      611     12.9
    04/20/2017 15:30      4.6      326     13.1      328     80.5     81.1     80.0       14     1015     0.00      545     12.9
    04/20/2017 15:45      5.1      330     14.5      316     80.4     81.0     79.7       16     1014     0.00      518     12.9
    04/20/2017 16:00      4.8      320     15.7      317     79.6     79.9     79.2       16     1014     0.00      469     12.9
    04/20/2017 16:15      4.8      325     12.9      334     78.7     79.3     78.2       17     1014     0.00      416     12.9
    04/20/2017 16:30      4.4      324     12.1      331     78.7     79.1     78.2       17     1014     0.00      364     12.9
    04/20/2017 16:45      5.0      332     17.9      331     77.7     78.3     76.7       17     1014     0.00      315     12.9
    04/20/2017 17:00      5.2      306     15.8      335     75.8     76.7     75.3       21     1014     0.00      264     12.9
    04/20/2017 17:15      4.3      310     13.0      330     75.2     75.6     74.7       21     1014     0.00      211     12.9
    04/20/2017 17:30      5.2      315     13.2      329     74.3     74.8     73.9       21     1014     0.00      162     13.0
    04/20/2017 17:45      5.6      304     21.0      343     73.9     74.2     73.7       19     1014     0.00      115     13.0
    04/20/2017 18:00      5.0      311     14.7      344     73.0     74.0     72.4       23     1014     0.00       70     13.0
    04/20/2017 18:15      5.4      320     15.4      325     72.0     72.7     71.4       24     1014     0.00       29     13.0
    04/20/2017 18:30      8.3      326     20.1      324     71.4     71.7     71.1       24     1014     0.00        7     13.1
    04/20/2017 18:45      6.4      314     19.5      347     70.8     71.3     70.0       26     1014     0.00        2     13.1
    04/20/2017 19:00      5.1      305     17.0      346     69.5     70.1     69.0       27     1014     0.00        0     13.1
    04/20/2017 19:15      7.5      320     19.6      330     69.7     70.0     69.2       27     1014     0.00        0     13.1
    04/20/2017 19:30      6.2      329     15.3      332     69.5     69.7     69.1       26     1015     0.00        0     13.1
    04/20/2017 19:45      7.3      326     19.2      332     69.7     70.0     69.3       25     1014     0.00        0     13.2
    04/20/2017 20:00      5.8      335     22.8      318     69.8     70.3     69.1       25     1015     0.00        0     13.2
    04/20/2017 20:15      2.4      201      8.3      140     69.3     69.6     68.7       26     1015     0.00        0     13.2
    04/20/2017 20:30      2.8      298     14.7      354     69.2     69.7     68.7       25     1015     0.00        0     13.2
    04/20/2017 20:45      4.2      285     10.1      286     69.6     70.0     69.1       25     1015     0.00        0     13.2
    04/20/2017 21:00      4.8      294     10.7      256     69.4     69.8     69.0       26     1015     0.00        0     13.2
    04/20/2017 21:15      5.0      322     12.3        0     69.5     69.7     69.1       28     1015     0.00        0     13.2
    04/20/2017 21:30      3.7      307     11.6      330     69.0     69.5     68.6       29     1015     0.00        0     13.2
    04/20/2017 21:45      3.5      350     12.7      298     69.0     69.3     68.5       29     1015     0.00        0     13.2
    04/20/2017 22:00      3.3      316     11.4      334     68.4     68.9     67.9       31     1015     0.00        0     13.2
    04/20/2017 22:15      4.5      337     12.8      279     68.0     68.2     67.6       31     1015     0.00        0     13.2
    04/20/2017 22:30      4.2       76      8.4       36     67.5     68.2     67.0       32     1015     0.00        0     13.2
    04/20/2017 22:45      4.0      301     11.6      345     67.6     68.1     67.0       30     1015     0.00        0     13.2
    04/20/2017 23:00      4.4      329     11.4      336     67.4     67.7     67.2       30     1015     0.00        0     13.2
    04/20/2017 23:15      2.2      315      7.0      332     67.0     67.4     66.6       30     1015     0.00        0     13.2
    04/20/2017 23:30      5.6      323     14.4      323     67.0     67.4     66.7       29     1014     0.00        0     13.2
    04/20/2017 23:45      2.7      308      9.3      329     66.4     67.0     65.8       30     1015     0.00        0     13.2
    04/21/2017 00:00      2.4      204      6.8      175     65.3     66.0     64.3       32     1015     0.00        0     13.2
    04/21/2017 00:15      3.6      336     11.4      308     65.0     65.7     64.1       30     1014     0.00        0     13.2
    04/21/2017 00:30      6.5      317     18.6      328     65.4     65.7     65.1       30     1014     0.00        0     13.2
    04/21/2017 00:45      4.0      312     15.1      333     65.4     65.7     65.1       30     1014     0.00        0     13.2
    04/21/2017 01:00      2.9      314     14.1      341     65.1     65.5     64.5       28     1014     0.00        0     13.2
    04/21/2017 01:15      5.3      320     14.7       41     65.6     66.0     65.3       27     1014     0.00        0     13.2
    04/21/2017 01:30      5.0      345     18.2      333     65.5     65.8     65.0       27     1014     0.00        0     13.2
    04/21/2017 01:45      3.2       29     10.3       90     64.7     65.2     64.3       28     1013     0.00        0     13.2
    04/21/2017 02:00      4.0       57     11.0       12     64.3     64.7     64.0       28     1013     0.00        0     13.2
    04/21/2017 02:15      6.9      334     22.0      342     64.7     65.1     64.3       27     1013     0.00        0     13.2
    04/21/2017 02:30      6.2      325     17.1      308     64.8     65.1     64.4       27     1013     0.00        0     13.2
    04/21/2017 02:45      4.1      325     15.5      322     65.1     65.4     64.7       26     1013     0.00        0     13.2
    04/21/2017 03:00      5.3      322     14.6      340     65.5     66.1     65.0       25     1013     0.00        0     13.2
    04/21/2017 03:15      9.1      330     19.5      325     66.6     67.2     65.8       24     1012     0.00        0     13.2
    04/21/2017 03:30      6.2      334     18.1      328     66.9     67.2     66.6       24     1012     0.00        0     13.2
    04/21/2017 03:45      4.8      330     13.4      333     66.6     66.9     66.2       25     1012     0.00        0     13.2
    04/21/2017 04:00      4.9      352     13.6       12     66.7     67.1     66.3       25     1012     0.00        0     13.2
    04/21/2017 04:15      2.7        0      9.6      353     66.1     66.9     65.7       25     1012     0.00        0     13.2
    04/21/2017 04:30      6.1      349     21.0      332     67.9     68.4     66.9       24     1012     0.00        0     13.2
    04/21/2017 04:45      6.3      357     16.2       16     67.9     68.3     67.6       24     1012     0.00        0     13.2
    04/21/2017 05:00      5.7      353     16.1      325     67.3     67.8     66.4       26     1012     0.00        0     13.2
    04/21/2017 05:15      5.8      351     15.8       31     66.3     66.6     66.1       27     1013     0.00        2     13.2
    04/21/2017 05:30      7.1      346     18.3      304     66.7     67.0     66.3       26     1012     0.00        8     13.2
    04/21/2017 05:45      6.4      351     14.9      322     66.9     67.5     66.6       26     1012     0.00       17     13.2
    04/21/2017 06:00      7.2      357     19.9      350     67.8     68.3     67.4       25     1012     0.00       25     13.2
    04/21/2017 06:15      7.1      350     19.3      329     68.6     69.2     68.1       25     1013     0.00       84     13.2
    04/21/2017 06:30      5.7      347     15.6      318     70.0     70.9     69.0       23     1013     0.00      154     13.2
    04/21/2017 06:45      7.9      350     19.7      336     71.2     71.6     70.7       23     1013     0.00      200     13.2
    04/21/2017 07:00      6.4      349     21.0       52     71.4     71.7     71.1       24     1013     0.00      248     13.1
    04/21/2017 07:15      8.5      345     23.1      352     71.3     71.8     70.9       23     1013     0.00      295     13.1
    04/21/2017 07:30      8.4      345     21.1       -0     72.3     72.9     71.7       22     1013     0.00      356     13.1
    04/21/2017 07:45      8.7      345     25.3      345     73.0     73.3     72.6       22     1013     0.00      399     13.1
    04/21/2017 08:00      9.5      340     24.5        0     73.4     73.8     73.1       22     1013     0.00      451     13.1
    04/21/2017 08:15      8.5      340     21.4      336     74.1     74.5     73.6       21     1013     0.00      502     13.1
    04/21/2017 08:30      9.3      347     19.4      341     74.9     75.5     74.4       18     1012     0.00      551     13.0
    04/21/2017 08:45      8.1      341     18.8      339     76.1     76.8     75.3       17     1013     0.00      594     13.0
    04/21/2017 09:00      7.7      342     20.6        6     77.5     78.0     76.6       16     1013     0.00      635     13.0
    04/21/2017 09:15      7.9      341     25.5      327     78.2     78.8     77.4       15     1013     0.00      676     13.0
    04/21/2017 09:30      8.9      342     21.6      348     78.9     79.5     78.5       14     1013     0.00      712     13.0
    04/21/2017 09:45      7.0      339     17.5      327     79.7     80.3     79.2       14     1013     0.00      747     13.0
    04/21/2017 10:00      8.3      337     21.3      310     80.1     80.5     79.5       14     1013     0.00      779     13.0
    04/21/2017 10:15      7.6      343     21.8      329     80.8     81.6     80.2       14     1013     0.00      805     13.0
    04/21/2017 10:30      6.5      342     16.4      339     81.5     82.4     80.8       14     1013     0.00      829     12.9
    04/21/2017 10:45      7.8      334     17.4      326     82.1     82.5     81.6       14     1013     0.00      847     12.9
    04/21/2017 11:00      8.9      338     23.4      331     82.6     82.8     82.2       14     1012     0.00      865     12.9
    04/21/2017 11:15      7.7      337     20.7      334     83.5     84.2     82.5       13     1012     0.00      880     12.9
    04/21/2017 11:30      7.8      336     20.8      342     84.2     84.7     83.8       12     1012     0.00      890     12.9
    04/21/2017 11:45      8.9      333     20.4      322     84.9     85.3     84.4       12     1012     0.00      897     12.9
    04/21/2017 12:00      6.5      334     19.3      322     86.0     86.6     84.8       12     1012     0.00      901     12.9
    04/21/2017 12:15      6.2      333     17.3      353     86.6     87.2     86.0       12     1012     0.00      897     12.9
    04/21/2017 12:30      7.0      345     16.5      317     87.3     88.0     86.9       10     1012     0.00      892     12.9
    04/21/2017 12:45      6.2      335     15.3      312     87.9     88.5     87.4       10     1012     0.00      887     12.9
    04/21/2017 13:00      6.3      338     16.3      335     88.8     89.2     88.4       10     1012     0.00      875     12.9
    04/21/2017 13:15      5.0      339     17.7      342     89.6     90.2     88.6       10     1012     0.00      859     12.9
    04/21/2017 13:30      4.4      342     14.5      342     90.4     90.9     89.5        9     1011     0.00      841     12.9
    04/21/2017 13:45      4.4      333     14.2      341     90.6     91.3     90.0        9     1011     0.00      817     12.9
    04/21/2017 14:00      4.1      346     10.7      331     90.9     91.5     90.1        8     1011     0.00      788     12.9
    04/21/2017 14:15      4.3      332     11.5      333     91.2     91.6     90.6        8     1011     0.00      757     12.9
    04/21/2017 14:30      4.9      335     15.4      331     91.2     91.8     90.7        8     1011     0.00      722     12.8
    04/21/2017 14:45      3.9      345     13.6      318     91.6     92.1     91.0        8     1010     0.00      684     12.9
    04/21/2017 15:00      4.0      311     10.4      336     91.6     92.2     91.1        9     1010     0.00      644     12.8
    04/21/2017 15:15      3.1      319      8.9      315     91.6     92.3     91.0        8     1010     0.00      591     12.9
    04/21/2017 15:30      3.5      294     10.3      339     91.7     92.4     91.1        9     1010     0.00      549     12.8
    04/21/2017 15:45      3.3      333     10.5      334     91.7     92.2     91.2        8     1010     0.00      509     12.9
    04/21/2017 16:00      3.0      324      8.7      304     91.4     91.9     90.9        8     1010     0.00      462     12.8
    04/21/2017 16:15      3.2      316      7.2      323     91.7     92.1     91.4        8     1010     0.00      413     12.9
    04/21/2017 16:30      3.1      300      9.2      341     91.1     91.7     90.7        9     1010     0.00      362     12.8
    04/21/2017 16:45      2.8      278      6.7      253     90.7     91.2     90.3        9     1010     0.00      310     12.9
    04/21/2017 17:00      4.9      207     11.8      182     89.1     90.6     87.6       12     1010     0.00      256     12.9
    04/21/2017 17:15      5.0      204     10.7      190     86.9     87.7     86.0       13     1009     0.00      204     12.9
    04/21/2017 17:30      5.1      209     12.5      217     85.9     86.1     85.4       13     1009     0.00      156     12.9
    04/21/2017 17:45      5.0      255     10.3      254     85.0     85.7     83.9       15     1010     0.00      111     12.9
    04/21/2017 18:00      5.2      269     11.8      272     82.8     84.0     81.8       16     1010     0.00       68     12.9
    04/21/2017 18:15      6.9      258     14.6      255     80.7     81.9     79.8       16     1010     0.00       29     12.9
    04/21/2017 18:30      5.4      264     12.7      247     79.3     80.0     78.6       16     1010     0.00        9     13.0
    04/21/2017 18:45      5.0      282     11.3      288     78.5     78.9     78.1       16     1010     0.00        2     13.0
    04/21/2017 19:00      4.4      284      8.7      269     77.5     78.2     77.0       18     1010     0.00        0     13.0
    04/21/2017 19:15      4.9      290      8.4      287     76.7     77.2     76.1       19     1010     0.00        0     13.0
    04/21/2017 19:30      3.4      267      8.4      253     76.7     77.0     76.3       18     1010     0.00        0     13.1
    04/21/2017 19:45      3.1      265      8.3      258     76.1     76.6     75.8       21     1011     0.00        0     13.1
    04/21/2017 20:00      1.8      269      4.9      242     75.2     76.1     74.6       23     1011     0.00        0     13.1
    04/21/2017 20:15      0.3      284      2.1      249     73.9     74.8     73.2       24     1011     0.00        0     13.1
    04/21/2017 20:30      0.0        0      0.0      302     72.6     73.2     72.0       25     1011     0.00        0     13.1
    04/21/2017 20:45      0.0      277      1.2      255     72.2     72.5     71.8       25     1011     0.00        0     13.1
    04/21/2017 21:00      0.0        0      0.0      272     71.4     72.4     70.4       29     1011     0.00        0     13.1
    04/21/2017 21:15      0.0        0      0.0      293     70.0     70.5     69.7       29     1011     0.00        0     13.1
    04/21/2017 21:30      0.0        0      0.0      283     69.9     70.2     69.6       30     1011     0.00        0     13.2
    04/21/2017 21:45      0.0        0      0.0      317     69.0     69.8     68.7       31     1011     0.00        0     13.2
    04/21/2017 22:00      0.0        0      0.0      328     68.3     69.0     67.2       35     1011     0.00        0     13.2
    04/21/2017 22:15      0.0        0      0.0      322     66.7     67.3     66.1       37     1011     0.00        0     13.2
    04/21/2017 22:30      0.0        0      0.0      251     66.1     66.4     65.7       37     1011     0.00        0     13.2
    04/21/2017 22:45      0.0      305      1.3      335     65.8     66.1     65.5       36     1011     0.00        0     13.2
    04/21/2017 23:00      0.3      295      3.6      295     65.9     66.2     65.6       36     1011     0.00        0     13.2
    04/21/2017 23:15      0.4      271      3.5      259     65.5     65.8     65.1       37     1011     0.00        0     13.2
    04/21/2017 23:30      0.4      240      2.8      210     65.5     66.1     65.1       33     1011     0.00        0     13.2
    04/21/2017 23:45      0.2      268      1.5      263     65.6     66.3     65.3       34     1011     0.00        0     13.2
    04/22/2017 00:00      0.0        0      0.0      288     65.3     65.5     64.9       33     1011     0.00        0     13.2
    04/22/2017 00:15      0.1      147      1.6      140     65.1     65.5     64.7       34     1011     0.00        0     13.2
    04/22/2017 00:30      0.5      111      2.5      133     65.1     65.5     64.6       34     1011     0.00        0     13.2
    04/22/2017 00:45      0.4      100      2.1       74     65.1     65.7     64.6       35     1011     0.00        0     13.3
    04/22/2017 01:00      0.4       21      1.8      343     64.5     64.8     64.1       36     1011     0.00        0     13.3
    04/22/2017 01:15      0.3       33      2.8      347     64.1     64.4     63.8       36     1011     0.00        0     13.3
    04/22/2017 01:30      0.3       27      2.5      345     63.8     64.3     63.2       38     1010     0.00        0     13.3
    04/22/2017 01:45      0.7      320      2.8      354     62.6     63.4     62.0       41     1010     0.00        0     13.3
    04/22/2017 02:00      0.5      287      1.8      291     62.3     62.8     61.7       38     1010     0.00        0     13.3
    04/22/2017 02:15      0.3      140      1.7      100     62.2     62.9     61.4       41     1010     0.00        0     13.3
    04/22/2017 02:30      0.0      166      1.4      165     61.3     61.6     61.0       42     1011     0.00        0     13.3
    04/22/2017 02:45      0.3      328      2.2      337     61.2     61.5     60.8       43     1011     0.00        0     13.3
    04/22/2017 03:00      0.0      312      1.2      333     60.4     60.9     59.5       47     1011     0.00        0     13.3
    04/22/2017 03:15      0.0        0      0.0      334     59.6     59.9     59.2       45     1011     0.00        0     13.3
    04/22/2017 03:30      0.0      297      0.8      298     59.6     59.9     59.2       45     1011     0.00        0     13.3
    04/22/2017 03:45      0.1      312      1.4      302     59.2     59.9     58.6       47     1011     0.00        0     13.3
    04/22/2017 04:00      0.0      349      0.5        3     58.5     58.8     58.1       48     1011     0.00        0     13.3
    04/22/2017 04:15      0.0        0      0.0      296     58.5     58.8     57.7       51     1011     0.00        0     13.3
    04/22/2017 04:30      0.0        0      0.0      238     57.8     58.0     57.5       49     1011     0.00        0     13.3
    04/22/2017 04:45      0.0        0      0.0      228     58.4     59.0     57.7       46     1011     0.00        0     13.3
    04/22/2017 05:00      0.2      338      1.6      341     58.7     59.0     58.4       47     1011     0.00        0     13.3
    04/22/2017 05:15      0.4      331      1.8      335     58.3     58.8     57.9       49     1011     0.00        2     13.3
    04/22/2017 05:30      0.0      321      0.9      325     57.7     58.2     57.0       51     1011     0.00        7     13.3
    04/22/2017 05:45      0.0        0      0.0       50     57.4     57.6     57.0       51     1011     0.00       16     13.3
    04/22/2017 06:00      0.0        0      0.0      322     57.9     58.4     57.3       51     1011     0.00       29     13.3
    04/22/2017 06:15      0.3      303      1.5      298     59.4     61.3     58.2       44     1011     0.00      110     13.3
    04/22/2017 06:30      0.3      305      2.1      296     62.9     64.6     61.2       39     1011     0.00      173     13.3
    04/22/2017 06:45      0.6      275      2.1      283     65.8     67.2     64.5       41     1012     0.00      211     13.2
    04/22/2017 07:00      0.0      194      1.3      205     68.8     70.1     67.2       32     1012     0.00      220     13.2
    04/22/2017 07:15      1.0      221      3.2      242     70.3     70.8     69.9       29     1012     0.00      279     13.2
    04/22/2017 07:30      1.2      212      3.9      178     71.0     72.0     70.2       29     1012     0.00      353     13.2
    04/22/2017 07:45      1.8      185      3.3      196     72.0     72.8     71.5       29     1012     0.00      360     13.1
    04/22/2017 08:00      2.2      189      5.1      187     73.1     74.1     72.5       26     1012     0.00      468     13.1
    04/22/2017 08:15      1.0      218      4.4      195     74.8     75.4     74.2       26     1012     0.00      521     13.1
    04/22/2017 08:30      0.8      192      3.5      209     75.5     76.9     74.5       23     1012     0.00      525     13.0
    04/22/2017 08:45      0.6      192      2.7      245     77.6     78.2     76.8       22     1012     0.00      566     13.0
    04/22/2017 09:00      0.7      215      3.3      189     78.5     79.9     77.7       21     1012     0.00      638     13.0
    04/22/2017 09:15      0.8      184      2.8      199     80.3     80.9     79.2       18     1012     0.00      683     13.0
    04/22/2017 09:30      1.0      225      3.6      147     81.6     82.1     80.6       17     1012     0.00      726     13.0
    04/22/2017 09:45      1.0      158      4.4      164     83.2     84.1     81.8       20     1012     0.00      752     12.9
    04/22/2017 10:00      1.0      209      3.0      198     84.1     85.1     83.1       15     1012     0.00      786     12.9
    04/22/2017 10:15      2.1      189      4.8      188     85.5     86.6     84.7       14     1012     0.00      813     12.9
    04/22/2017 10:30      2.6      132      7.4      173     87.0     87.5     86.3       13     1012     0.00      840     12.9
    04/22/2017 10:45      3.2      151      9.4      142     88.2     89.0     87.1       12     1011     0.00      861     12.9
    04/22/2017 11:00      3.5      108      8.1       55     88.4     89.0     87.8       11     1011     0.00      876     12.9
    04/22/2017 11:15      3.3      116      7.1       88     88.3     89.4     87.5       11     1011     0.00      887     12.9
    04/22/2017 11:30      3.1      140      8.6      101     89.4     90.1     88.7       12     1011     0.00      896     12.9
    04/22/2017 11:45      3.8      152     11.5      157     90.6     91.1     90.1       13     1011     0.00      901     12.9
    04/22/2017 12:00      3.5      159      8.7       68     89.9     90.9     88.9       12     1010     0.00      906     12.9
    04/22/2017 12:15      4.4       90     11.4       84     89.8     90.4     89.3       11     1010     0.00      904     12.9
    04/22/2017 12:30      3.6      114      7.6       69     90.4     90.9     89.9       10     1010     0.00      890     12.9
    04/22/2017 12:45      2.5       57      6.9      114     91.2     92.1     90.3       11     1010     0.00      876     12.9
    04/22/2017 13:00      3.9      134      9.7      177     90.7     91.5     90.1       13     1010     0.00      855     12.9
    04/22/2017 13:15      2.8       90      7.6      153     91.3     92.1     90.5       12     1010     0.00      803     12.9
    04/22/2017 13:30      4.1      130      9.4      137     91.8     92.4     91.3       12     1010     0.00      798     12.9
    04/22/2017 13:45      4.5      175      9.6      142     91.9     92.7     91.4       13     1010     0.00      770     12.8
    04/22/2017 14:00      4.9      194      9.9      248     91.6     92.5     91.1       14     1010     0.00      736     12.9
    04/22/2017 14:15      5.5      248     11.9      260     91.6     92.7     90.9       13     1009     0.00      682     12.8
    04/22/2017 14:30      6.3      274     12.5      257     90.9     91.8     90.3       14     1009     0.00      612     12.9
    04/22/2017 14:45      7.5      270     16.6      239     89.9     90.3     89.5       13     1009     0.00      635     12.9
    04/22/2017 15:00      5.8      284     10.8      228     90.0     90.4     89.7       12     1009     0.00      637     12.9
    04/22/2017 15:15      5.8      275     14.6      228     89.6     90.2     89.1       12     1009     0.00      575     12.9
    04/22/2017 15:30      7.0      273     13.6      302     88.4     89.5     87.8       13     1009     0.00      539     12.9
    04/22/2017 15:45      6.6      270     21.0      255     87.6     88.2     87.1       13     1009     0.00      518     12.9
    04/22/2017 16:00      7.1      266     16.2      286     87.0     87.8     86.5       14     1009     0.00      468     12.9
    04/22/2017 16:15      6.2      267     14.8      238     86.7     87.2     86.2       14     1009     0.00      406     12.9
    04/22/2017 16:30      7.1      262     15.7      263     85.9     86.5     85.1       13     1009     0.00      347     12.9
    04/22/2017 16:45      6.6      261     14.1      250     85.1     85.5     84.7       13     1009     0.00      324     12.9
    04/22/2017 17:00      4.7      252     14.4      248     85.2     85.5     84.5       14     1009     0.00      253     12.9
    04/22/2017 17:15      4.5      263     10.0      231     84.1     84.6     83.6       14     1009     0.00      183     12.9
    04/22/2017 17:30      5.7      265     11.8      246     83.1     83.7     82.5       15     1009     0.00      154     12.9
    04/22/2017 17:45      4.4      268     10.4      252     82.3     83.0     81.4       15     1009     0.00       73     12.9
    04/22/2017 18:00      5.5      249     15.5      249     80.9     81.7     80.1       16     1010     0.00       33     12.9
    04/22/2017 18:15      2.7      238      9.9      238     79.7     80.5     79.1       17     1010     0.00       21     13.0
    04/22/2017 18:30      3.3      257      9.4      251     79.1     79.5     78.6       17     1010     0.00        9     13.0
    04/22/2017 18:45      2.2      260      5.0      250     78.0     78.7     77.3       18     1010     0.00        1     13.0
    04/22/2017 19:00      1.8      259      4.6      259     77.1     77.5     76.7       18     1010     0.00        0     13.1
    04/22/2017 19:15      1.7      250      4.7      236     76.1     76.9     75.2       21     1010     0.00        0     13.1
    04/22/2017 19:30      0.0        0      0.0      219     74.8     75.3     74.3       22     1010     0.00        0     13.1
    04/22/2017 19:45      0.0        0      0.0      280     73.8     74.5     73.1       24     1010     0.00        0     13.1
    04/22/2017 20:00      0.0        0      0.0      244     72.9     73.3     72.3       25     1010     0.00        0     13.1
    04/22/2017 20:15      0.0        0      0.0      270     72.4     72.9     72.0       25     1010     0.00        0     13.1
    04/22/2017 20:30      0.0        0      0.0      338     72.3     73.0     71.9       26     1010     0.00        0     13.1
    04/22/2017 20:45      0.0        0      0.0      328     71.3     72.1     70.6       29     1010     0.00        0     13.1
    04/22/2017 21:00      0.1      101      2.5       82     70.2     70.8     69.6       30     1010     0.00        0     13.1
    04/22/2017 21:15      0.0        0      0.0      172     69.3     69.9     69.0       32     1010     0.00        0     13.2
    04/22/2017 21:30      0.0        0      0.0      269     68.8     69.2     68.5       31     1010     0.00        0     13.2
    04/22/2017 21:45      0.0        0      0.0      154     68.6     69.1     68.2       32     1009     0.00        0     13.2
    04/22/2017 22:00      0.0        0      0.0       51     68.8     69.3     68.3       32     1009     0.00        0     13.2
    04/22/2017 22:15      0.0       60      1.5       47     68.9     69.3     68.4       32     1010     0.00        0     13.2
    04/22/2017 22:30      1.2       72      3.5       90     69.8     70.1     69.2       31     1010     0.00        0     13.2
    04/22/2017 22:45      1.2       68      3.3       46     69.3     69.8     68.9       32     1010     0.00        0     13.2
    04/22/2017 23:00      0.8       36      2.9       29     69.3     69.5     69.0       32     1010     0.00        0     13.2
    04/22/2017 23:15      0.7       22      3.1       35     69.1     69.3     68.9       33     1010     0.00        0     13.2
    04/22/2017 23:30      0.4       26      3.6       10     68.7     69.1     68.1       35     1010     0.00        0     13.2
    04/22/2017 23:45      0.3       29      3.0       62     68.2     68.4     67.9       37     1010     0.00        0     13.2
    04/23/2017 00:00      2.3       53      7.4       58     68.3     68.8     67.8       35     1010     0.00        0     13.2
    04/23/2017 00:15      1.0       81      3.6       62     68.2     68.8     67.8       40     1010     0.00        0     13.2
    04/23/2017 00:30      0.7       84      5.3       76     67.6     68.0     66.9       43     1010     0.00        0     13.2
    04/23/2017 00:45      0.7       92      3.6       84     66.7     67.1     66.2       44     1009     0.00        0     13.2
    04/23/2017 01:00      0.9       62      4.5       98     66.2     66.4     65.9       43     1009     0.00        0     13.2
    04/23/2017 01:15      0.6       30      3.0       33     66.1     66.5     65.8       43     1009     0.00        0     13.2
    04/23/2017 01:30      0.9       42      3.6       43     65.7     66.0     65.5       44     1009     0.00        0     13.2
    04/23/2017 01:45      0.9       74      4.4       85     65.4     65.8     64.8       46     1009     0.00        0     13.2
    04/23/2017 02:00      1.6       85      4.2       77     64.4     65.0     64.0       49     1009     0.00        0     13.2
    04/23/2017 02:15      2.2       78      4.3       69     63.8     64.1     63.5       51     1009     0.00        0     13.2
    04/23/2017 02:30      0.5      108      2.8       97     63.2     63.7     62.6       53     1009     0.00        0     13.2
    04/23/2017 02:45      0.9      114      4.0       89     62.1     62.7     61.8       55     1009     0.00        0     13.3
    04/23/2017 03:00      0.7       73      2.4       56     62.0     62.3     61.7       56     1009     0.00        0     13.3
    04/23/2017 03:15      0.5       25      4.5       43     61.4     61.8     61.1       57     1009     0.00        0     13.3
    04/23/2017 03:30      2.5       41      5.6       40     61.8     62.0     61.2       57     1009     0.00        0     13.3
    04/23/2017 03:45      2.1       44      4.1       57     61.7     62.0     61.4       58     1009     0.00        0     13.3
    04/23/2017 04:00      1.0       60      3.0       50     61.4     61.7     61.1       59     1009     0.00        0     13.3
    04/23/2017 04:15      0.7       75      2.9       93     61.0     61.3     60.6       61     1009     0.00        0     13.3
    04/23/2017 04:30      0.1       67      1.9       76     60.3     60.8     59.7       64     1009     0.00        0     13.3
    04/23/2017 04:45      0.3       31      2.3       69     59.5     59.9     59.3       66     1009     0.00        0     13.3
    04/23/2017 05:00      0.6      342      2.5      353     59.7     59.9     59.5       64     1009     0.00        0     13.3
    04/23/2017 05:15      0.0      143      0.8      143     58.7     59.7     57.9       67     1009     0.00        0     13.3
    04/23/2017 05:30      0.3      145      1.4      149     57.8     58.2     57.4       70     1009     0.00        5     13.3
    04/23/2017 05:45      0.0       39      1.2       24     57.8     58.3     57.3       70     1010     0.00       13     13.3
    04/23/2017 06:00      1.0       90      3.3      131     58.8     59.3     58.1       68     1010     0.00       28     13.3
    04/23/2017 06:15      1.6       54      3.6        2     59.9     60.7     59.2       66     1010     0.00       87     13.3
    04/23/2017 06:30      1.6       42      4.5       69     61.5     62.1     60.5       62     1010     0.00      157     13.3
    04/23/2017 06:45      3.9       79      9.2       52     62.2     62.8     61.8       61     1011     0.00      200     13.3
    04/23/2017 07:00      4.7       72      8.4       57     62.6     62.9     62.3       60     1010     0.00      252     13.2
    04/23/2017 07:15      3.0       92      6.9       45     63.4     63.9     62.7       57     1010     0.00      299     13.2
    04/23/2017 07:30      1.6       96      4.8      143     64.2     65.0     63.6       55     1011     0.00      353     13.2
    04/23/2017 07:45      1.8      165      5.1      157     65.7     66.7     64.4       52     1011     0.00      403     13.2
    04/23/2017 08:00      1.5      164      5.0      141     65.9     66.8     65.2       53     1011     0.00      451     13.1
    04/23/2017 08:15      1.3      189      4.7      159     66.8     68.3     65.7       49     1011     0.00      502     13.1
    04/23/2017 08:30      1.0       93      2.9       50     68.5     69.5     67.9       46     1011     0.00      550     13.1
    04/23/2017 08:45      1.6      119      5.7       72     69.0     69.5     68.4       47     1011     0.00      594     13.1
    04/23/2017 09:00      1.7      119      5.7       82     69.6     70.2     68.7       44     1011     0.00      638     13.0
    04/23/2017 09:15      2.6      146      7.4       47     69.9     70.5     69.0       43     1011     0.00      676     13.0
    04/23/2017 09:30      3.7      120      8.0       70     71.4     73.0     69.7       38     1010     0.00      712     13.0
    04/23/2017 09:45      3.3      111      8.5       72     72.4     73.0     71.8       38     1010     0.00      747     13.0
    04/23/2017 10:00      3.2      162      7.8      161     72.9     73.8     71.8       36     1011     0.00      778     13.0
    04/23/2017 10:15      1.9      167      5.0      124     73.4     74.3     72.4       37     1011     0.00      805     13.0
    04/23/2017 10:30      3.0      101      7.1       96     74.7     75.4     74.1       33     1011     0.00      827     13.0
    04/23/2017 10:45      3.2      154      8.2      153     76.0     77.3     74.8       34     1011     0.00      846     13.0
    04/23/2017 11:00      2.1      104      7.3       99     76.3     77.1     74.7       31     1010     0.00      859     12.9
    04/23/2017 11:15      2.6       85      7.3       65     76.8     77.4     76.2       33     1010     0.00      870     12.9
    04/23/2017 11:30      5.0      154     10.3      184     78.3     79.0     77.3       27     1010     0.00      885     12.9